Time;durP1;ratioP1;P1;durP2;ratioP2;P2;SDS_P1;SDS_P2;PMS_P1;PMS_P2;Temp;Humidity;BMP_temperature;BMP_pressure;BME280_temperature;BME280_humidity;BME280_pressure;Samples;Min_cycle;Max_cycle;Signal;HPM_P1;HPM_P2
2023/08/15 00:01:27;;;;;;;11.40;3.42;;;;;;;;;;5097588;28;20195;-89
2023/08/15 00:03:54;;;;;;;13.90;3.80;;;;;;;;;;5096974;28;20217;-90
2023/08/15 00:06:21;;;;;;;14.38;3.85;;;;;;;;;;5097338;28;20555;-89
2023/08/15 00:08:53;;;;;;;8.73;3.67;;;;;;;;;;5097208;28;20214;-89
2023/08/15 00:11:20;;;;;;;10.32;4.28;;;;;;;;;;5097063;28;20225;-88
2023/08/15 00:13:48;;;;;;;13.45;4.40;;;;;;;;;;5097316;28;20196;-89
2023/08/15 00:16:16;;;;;;;11.32;3.88;;;;;;;;;;5096674;28;20663;-90
2023/08/15 00:18:44;;;;;;;8.65;3.78;;;;;;;;;;5097114;28;20210;-89
2023/08/15 00:21:11;;;;;;;9.25;3.90;;;;;;;;;;5097109;28;20282;-89
2023/08/15 00:23:38;;;;;;;15.30;4.05;;;;;;;;;;5096866;28;20233;-89
2023/08/15 00:26:05;;;;;;;13.20;3.90;;;;;;;;;;5097342;28;20279;-89
2023/08/15 00:28:33;;;;;;;13.98;3.97;;;;;;;;;;5096859;28;20247;-90
2023/08/15 00:31:00;;;;;;;14.73;4.10;;;;;;;;;;5097046;28;20248;-89
2023/08/15 00:33:29;;;;;;;14.40;4.07;;;;;;;;;;5096430;28;20312;-89
2023/08/15 00:35:56;;;;;;;9.65;3.60;;;;;;;;;;5096781;28;20277;-89
2023/08/15 00:38:23;;;;;;;14.75;4.18;;;;;;;;;;5096586;28;20273;-90
2023/08/15 00:40:50;;;;;;;16.98;4.45;;;;;;;;;;5096379;28;20218;-89
2023/08/15 00:43:18;;;;;;;10.55;3.75;;;;;;;;;;5096670;28;20194;-90
2023/08/15 00:45:46;;;;;;;14.70;3.83;;;;;;;;;;5096290;28;20186;-89
2023/08/15 00:48:13;;;;;;;11.05;4.13;;;;;;;;;;5096327;28;20214;-89
2023/08/15 00:50:43;;;;;;;13.18;4.30;;;;;;;;;;5096401;28;20360;-89
2023/08/15 00:53:12;;;;;;;16.38;4.22;;;;;;;;;;5096384;28;20244;-89
2023/08/15 00:55:40;;;;;;;13.48;4.03;;;;;;;;;;5095281;28;20522;-90
2023/08/15 00:58:08;;;;;;;11.38;4.20;;;;;;;;;;5096474;28;20197;-90
2023/08/15 01:00:35;;;;;;;12.15;3.60;;;;;;;;;;5096267;28;20221;-89
2023/08/15 01:03:03;;;;;;;11.23;4.07;;;;;;;;;;5096321;28;20226;-89
2023/08/15 01:05:31;;;;;;;15.32;4.68;;;;;;;;;;5096161;28;20202;-89
2023/08/15 01:08:00;;;;;;;11.25;3.95;;;;;;;;;;5096062;28;20563;-89
2023/08/15 01:10:27;;;;;;;8.45;4.03;;;;;;;;;;5095366;28;20277;-89
2023/08/15 01:13:00;;;;;;;8.25;3.90;;;;;;;;;;5096181;28;20313;-90
2023/08/15 01:15:28;;;;;;;11.00;4.20;;;;;;;;;;5095863;28;20229;-89
2023/08/15 01:17:57;;;;;;;13.43;4.10;;;;;;;;;;5095960;28;20233;-90
2023/08/15 01:20:28;;;;;;;11.68;4.18;;;;;;;;;;5096016;28;20218;-89
2023/08/15 01:22:59;;;;;;;11.55;4.13;;;;;;;;;;5096091;28;20341;-89
2023/08/15 01:25:28;;;;;;;11.10;3.90;;;;;;;;;;5095792;28;20281;-90
2023/08/15 01:27:55;;;;;;;8.55;4.03;;;;;;;;;;5095580;28;20196;-89
2023/08/15 01:30:24;;;;;;;10.95;3.78;;;;;;;;;;5095638;28;20581;-89
2023/08/15 01:32:54;;;;;;;8.45;3.42;;;;;;;;;;5095458;28;20210;-89
2023/08/15 01:35:24;;;;;;;9.98;3.25;;;;;;;;;;5095577;28;20195;-89
2023/08/15 01:37:54;;;;;;;11.60;3.40;;;;;;;;;;5095722;28;20218;-89
2023/08/15 01:40:22;;;;;;;11.20;3.20;;;;;;;;;;5095146;28;20277;-89
2023/08/15 01:42:51;;;;;;;9.55;3.50;;;;;;;;;;5095385;28;20226;-90
2023/08/15 01:45:18;;;;;;;9.43;3.45;;;;;;;;;;5094602;28;20397;-89
2023/08/15 01:47:46;;;;;;;8.93;3.20;;;;;;;;;;5074841;28;20203;-89
2023/08/15 01:50:13;;;;;;;8.30;3.47;;;;;;;;;;5074762;28;20276;-88
2023/08/15 01:52:40;;;;;;;8.23;3.28;;;;;;;;;;5074340;28;20322;-89
2023/08/15 01:55:08;;;;;;;8.93;3.33;;;;;;;;;;5074515;28;20682;-89
2023/08/15 01:57:35;;;;;;;6.63;3.10;;;;;;;;;;5074703;28;20191;-89
2023/08/15 02:00:04;;;;;;;7.93;3.20;;;;;;;;;;5074399;28;20222;-89
2023/08/15 02:02:32;;;;;;;12.27;3.85;;;;;;;;;;5074630;28;20276;-89
2023/08/15 02:05:02;;;;;;;6.93;3.13;;;;;;;;;;5074680;28;20204;-89
2023/08/15 02:07:29;;;;;;;8.80;3.42;;;;;;;;;;5074865;28;20238;-89
2023/08/15 02:09:56;;;;;;;9.30;3.33;;;;;;;;;;5073935;28;20295;-89
2023/08/15 02:12:23;;;;;;;7.22;3.08;;;;;;;;;;5074227;28;20330;-89
2023/08/15 02:14:51;;;;;;;11.98;3.70;;;;;;;;;;5074534;28;20651;-89
2023/08/15 02:17:20;;;;;;;11.95;3.42;;;;;;;;;;5074221;28;20195;-89
2023/08/15 02:19:47;;;;;;;9.90;3.35;;;;;;;;;;5074412;28;20282;-90
2023/08/15 02:22:14;;;;;;;10.20;3.58;;;;;;;;;;5074552;28;20202;-89
2023/08/15 02:24:42;;;;;;;9.23;3.25;;;;;;;;;;5073994;28;20226;-90
2023/08/15 02:27:10;;;;;;;8.23;3.00;;;;;;;;;;5074169;28;20219;-90
2023/08/15 02:29:37;;;;;;;6.05;2.60;;;;;;;;;;5074191;28;20628;-89
2023/08/15 02:32:04;;;;;;;7.57;2.50;;;;;;;;;;5074385;28;20195;-90
2023/08/15 02:34:33;;;;;;;5.88;2.50;;;;;;;;;;5074070;28;20221;-89
2023/08/15 02:37:00;;;;;;;6.75;2.80;;;;;;;;;;5074041;28;20203;-89
2023/08/15 02:39:28;;;;;;;5.13;1.95;;;;;;;;;;5073936;28;20274;-89
2023/08/15 02:41:55;;;;;;;3.13;1.40;;;;;;;;;;5073978;28;20222;-89
2023/08/15 02:44:22;;;;;;;4.07;1.60;;;;;;;;;;5073999;28;20226;-89
2023/08/15 02:46:49;;;;;;;3.33;1.48;;;;;;;;;;5074249;28;20282;-88
2023/08/15 02:49:17;;;;;;;3.03;1.15;;;;;;;;;;5073769;28;20234;-89
2023/08/15 02:51:46;;;;;;;3.05;1.35;;;;;;;;;;5073433;28;20219;-89
2023/08/15 02:54:13;;;;;;;2.15;1.17;;;;;;;;;;5073553;28;20321;-89
2023/08/15 02:56:40;;;;;;;2.35;1.50;;;;;;;;;;5073925;28;20195;-89
2023/08/15 02:59:07;;;;;;;1.20;1.10;;;;;;;;;;5073767;28;20187;-89
2023/08/15 03:01:35;;;;;;;3.42;1.60;;;;;;;;;;5073662;28;20214;-89
2023/08/15 03:04:02;;;;;;;1.90;1.70;;;;;;;;;;5073691;28;20199;-89
2023/08/15 03:06:29;;;;;;;2.65;1.80;;;;;;;;;;5073601;28;20211;-88
2023/08/15 03:08:58;;;;;;;5.13;1.80;;;;;;;;;;5073768;28;20278;-88
2023/08/15 03:11:25;;;;;;;2.45;1.70;;;;;;;;;;5073804;28;20199;-88
2023/08/15 03:13:54;;;;;;;3.33;1.50;;;;;;;;;;5073718;28;20676;-88
2023/08/15 03:16:22;;;;;;;3.00;1.50;;;;;;;;;;5073312;28;20203;-88
2023/08/15 03:18:49;;;;;;;2.20;1.30;;;;;;;;;;5072916;28;20191;-89
2023/08/15 03:21:17;;;;;;;3.03;1.40;;;;;;;;;;5073917;28;20246;-88
2023/08/15 03:23:44;;;;;;;2.78;1.52;;;;;;;;;;5073593;28;20203;-89
2023/08/15 03:26:13;;;;;;;4.25;1.67;;;;;;;;;;5073060;28;20237;-88
2023/08/15 03:28:40;;;;;;;3.97;1.52;;;;;;;;;;5073646;28;20215;-89
2023/08/15 03:31:08;;;;;;;3.15;1.50;;;;;;;;;;5072987;28;20260;-88
2023/08/15 03:33:35;;;;;;;3.97;1.55;;;;;;;;;;5073492;28;20218;-89
2023/08/15 03:36:01;;;;;;;5.57;2.00;;;;;;;;;;5073096;28;20187;-89
2023/08/15 03:38:29;;;;;;;6.18;2.42;;;;;;;;;;5072900;28;20191;-88
2023/08/15 03:41:03;;;;;;;5.22;2.00;;;;;;;;;;5073261;28;20214;-89
2023/08/15 03:43:32;;;;;;;3.67;1.83;;;;;;;;;;5073329;28;20197;-88
2023/08/15 03:46:02;;;;;;;6.88;2.47;;;;;;;;;;5073244;28;20223;-89
2023/08/15 03:48:30;;;;;;;5.45;2.17;;;;;;;;;;5073362;28;20655;-88
2023/08/15 03:50:58;;;;;;;4.85;2.30;;;;;;;;;;5073169;28;20281;-88
2023/08/15 03:53:26;;;;;;;8.50;2.15;;;;;;;;;;5072984;28;20234;-89
2023/08/15 03:55:54;;;;;;;4.93;2.70;;;;;;;;;;5073113;28;20278;-89
2023/08/15 03:58:21;;;;;;;4.80;2.47;;;;;;;;;;5072740;28;20198;-89
2023/08/15 04:00:50;;;;;;;7.45;2.55;;;;;;;;;;5072998;28;20622;-89
2023/08/15 04:03:18;;;;;;;6.57;2.58;;;;;;;;;;5073257;28;20241;-88
2023/08/15 04:05:45;;;;;;;3.50;2.15;;;;;;;;;;5072494;28;20622;-88
2023/08/15 04:08:13;;;;;;;3.97;2.10;;;;;;;;;;5073210;28;20628;-89
2023/08/15 04:10:40;;;;;;;5.40;2.55;;;;;;;;;;5072455;28;20294;-89
2023/08/15 04:13:08;;;;;;;4.75;2.25;;;;;;;;;;5072971;28;20227;-89
2023/08/15 04:15:35;;;;;;;6.85;2.30;;;;;;;;;;5073045;28;20715;-88
2023/08/15 04:18:04;;;;;;;4.80;2.53;;;;;;;;;;5090041;28;20209;-87
2023/08/15 04:20:32;;;;;;;6.75;2.20;;;;;;;;;;5092795;28;20289;-89
2023/08/15 04:22:59;;;;;;;6.60;2.20;;;;;;;;;;5093298;28;20285;-88
2023/08/15 04:25:27;;;;;;;4.47;2.20;;;;;;;;;;5092893;28;20229;-88
2023/08/15 04:27:54;;;;;;;6.43;2.42;;;;;;;;;;5092880;28;20734;-89
2023/08/15 04:30:22;;;;;;;7.13;2.63;;;;;;;;;;5093641;28;20294;-88
2023/08/15 04:32:49;;;;;;;5.75;2.13;;;;;;;;;;5096267;28;20230;-87
2023/08/15 04:35:18;;;;;;;6.10;2.60;;;;;;;;;;5096770;28;20252;-88
2023/08/15 04:37:45;;;;;;;4.70;2.30;;;;;;;;;;5096555;28;20229;-88
2023/08/15 04:40:13;;;;;;;8.38;2.47;;;;;;;;;;5096303;28;20281;-88
2023/08/15 04:42:41;;;;;;;4.32;2.20;;;;;;;;;;5096232;28;20293;-88
2023/08/15 04:45:09;;;;;;;3.97;2.17;;;;;;;;;;5095231;28;20195;-88
2023/08/15 04:47:36;;;;;;;7.18;2.58;;;;;;;;;;5095830;28;20191;-88
2023/08/15 04:50:04;;;;;;;5.93;2.58;;;;;;;;;;5096126;28;20289;-88
2023/08/15 04:52:32;;;;;;;6.78;2.25;;;;;;;;;;5096164;28;20261;-89
2023/08/15 04:55:00;;;;;;;5.07;2.15;;;;;;;;;;5096344;28;20313;-88
2023/08/15 04:57:27;;;;;;;7.22;2.60;;;;;;;;;;5096138;28;20217;-88
2023/08/15 04:59:54;;;;;;;5.53;2.55;;;;;;;;;;5095742;28;20697;-89
2023/08/15 05:02:22;;;;;;;4.60;2.50;;;;;;;;;;5095821;28;20221;-88
2023/08/15 05:04:49;;;;;;;4.90;2.28;;;;;;;;;;5096082;28;20630;-87
2023/08/15 05:07:16;;;;;;;4.18;2.45;;;;;;;;;;5095612;28;20210;-88
2023/08/15 05:09:46;;;;;;;8.15;2.70;;;;;;;;;;5095526;28;20286;-88
2023/08/15 05:12:13;;;;;;;9.60;2.97;;;;;;;;;;5095506;28;20897;-88
2023/08/15 05:14:41;;;;;;;5.78;2.67;;;;;;;;;;5095807;28;20218;-88
2023/08/15 05:17:09;;;;;;;8.55;2.40;;;;;;;;;;5085589;28;20242;-88
2023/08/15 05:19:36;;;;;;;7.80;2.90;;;;;;;;;;5075335;28;20187;-88
2023/08/15 05:22:03;;;;;;;6.75;2.75;;;;;;;;;;5075260;28;20219;-89
2023/08/15 05:24:30;;;;;;;7.20;2.80;;;;;;;;;;5075584;28;20223;-88
2023/08/15 05:26:59;;;;;;;8.32;2.50;;;;;;;;;;5075538;28;20278;-88
2023/08/15 05:29:26;;;;;;;6.97;2.40;;;;;;;;;;5075106;28;20211;-88
2023/08/15 05:31:54;;;;;;;6.40;2.58;;;;;;;;;;5075375;28;20279;-89
2023/08/15 05:34:21;;;;;;;6.13;2.50;;;;;;;;;;5075063;28;20301;-88
2023/08/15 05:36:48;;;;;;;8.20;2.90;;;;;;;;;;5075345;28;20201;-88
2023/08/15 05:39:15;;;;;;;5.25;2.63;;;;;;;;;;5075383;28;20580;-88
2023/08/15 05:41:43;;;;;;;6.53;2.90;;;;;;;;;;5074518;28;20289;-88
2023/08/15 05:44:11;;;;;;;8.93;2.53;;;;;;;;;;5075029;28;20628;-88
2023/08/15 05:46:39;;;;;;;6.32;3.00;;;;;;;;;;5074521;28;20230;-88
2023/08/15 05:49:06;;;;;;;10.27;3.65;;;;;;;;;;5075217;28;20652;-88
2023/08/15 05:51:33;;;;;;;6.30;3.22;;;;;;;;;;5074865;28;20230;-89
2023/08/15 05:54:00;;;;;;;9.25;3.50;;;;;;;;;;5074665;28;20262;-88
2023/08/15 05:56:27;;;;;;;11.77;3.50;;;;;;;;;;5075012;28;20282;-88
2023/08/15 05:58:55;;;;;;;7.82;3.40;;;;;;;;;;5074934;28;20191;-88
2023/08/15 06:01:24;;;;;;;7.80;3.22;;;;;;;;;;5074448;28;20249;-88
2023/08/15 06:03:51;;;;;;;7.57;3.50;;;;;;;;;;5074466;28;20301;-88
2023/08/15 06:06:18;;;;;;;10.68;3.42;;;;;;;;;;5074926;28;20191;-88
2023/08/15 06:08:46;;;;;;;11.27;3.53;;;;;;;;;;5074378;28;20211;-89
2023/08/15 06:11:13;;;;;;;10.88;4.00;;;;;;;;;;5074823;28;20215;-88
2023/08/15 06:13:40;;;;;;;6.40;3.20;;;;;;;;;;5074186;28;20221;-88
2023/08/15 06:16:07;;;;;;;7.60;3.00;;;;;;;;;;5075081;28;20278;-88
2023/08/15 06:18:36;;;;;;;10.30;3.22;;;;;;;;;;5094460;28;20238;-88
2023/08/15 06:21:04;;;;;;;7.47;2.72;;;;;;;;;;5094535;28;20289;-88
2023/08/15 06:23:31;;;;;;;7.45;2.90;;;;;;;;;;5094653;28;20225;-89
2023/08/15 06:25:58;;;;;;;6.80;2.70;;;;;;;;;;5093892;28;20278;-89
2023/08/15 06:28:25;;;;;;;8.63;2.65;;;;;;;;;;5094302;28;20305;-88
2023/08/15 06:30:53;;;;;;;5.72;2.75;;;;;;;;;;5094134;28;20229;-88
2023/08/15 06:33:20;;;;;;;7.80;2.97;;;;;;;;;;5093226;28;20208;-89
2023/08/15 06:35:48;;;;;;;12.35;3.15;;;;;;;;;;5093858;28;20282;-87
2023/08/15 06:38:16;;;;;;;7.10;2.63;;;;;;;;;;5094298;28;20640;-88
2023/08/15 06:40:43;;;;;;;9.77;2.80;;;;;;;;;;5093989;28;20191;-88
2023/08/15 06:43:11;;;;;;;7.95;2.35;;;;;;;;;;5093732;28;20439;-89
2023/08/15 06:45:38;;;;;;;8.23;2.50;;;;;;;;;;5093992;28;20221;-89
2023/08/15 06:48:06;;;;;;;6.43;2.40;;;;;;;;;;5094072;28;20191;-88
2023/08/15 06:50:34;;;;;;;8.27;2.92;;;;;;;;;;5093954;28;20190;-88
2023/08/15 06:53:03;;;;;;;10.00;2.90;;;;;;;;;;5092733;28;20265;-88
2023/08/15 06:55:30;;;;;;;8.95;2.58;;;;;;;;;;5093555;28;20226;-88
2023/08/15 06:57:58;;;;;;;8.05;2.70;;;;;;;;;;5093844;28;20217;-88
2023/08/15 07:00:25;;;;;;;7.22;2.58;;;;;;;;;;5094008;28;20216;-88
2023/08/15 07:02:52;;;;;;;6.32;3.30;;;;;;;;;;5093640;28;20834;-89
2023/08/15 07:05:20;;;;;;;7.40;2.50;;;;;;;;;;5093584;28;20251;-89
2023/08/15 07:07:47;;;;;;;9.65;2.65;;;;;;;;;;5093626;28;20711;-88
2023/08/15 07:10:16;;;;;;;5.80;2.15;;;;;;;;;;5094081;28;20202;-88
2023/08/15 07:12:43;;;;;;;7.75;2.55;;;;;;;;;;5093542;28;20625;-89
2023/08/15 07:15:10;;;;;;;8.20;2.42;;;;;;;;;;5094044;28;20655;-89
2023/08/15 07:17:38;;;;;;;6.88;2.45;;;;;;;;;;5079941;28;20734;-89
2023/08/15 07:20:05;;;;;;;10.48;2.50;;;;;;;;;;5073501;28;20364;-88
2023/08/15 07:22:33;;;;;;;7.10;2.30;;;;;;;;;;5073376;28;20191;-87
2023/08/15 07:25:00;;;;;;;5.63;2.05;;;;;;;;;;5073707;28;20561;-89
2023/08/15 07:27:29;;;;;;;6.25;2.15;;;;;;;;;;5073353;28;20202;-88
2023/08/15 07:29:56;;;;;;;5.82;2.40;;;;;;;;;;5073208;28;20230;-88
2023/08/15 07:32:23;;;;;;;7.35;2.20;;;;;;;;;;5073245;28;20282;-88
2023/08/15 07:34:50;;;;;;;6.75;2.00;;;;;;;;;;5073441;28;20663;-88
2023/08/15 07:37:17;;;;;;;7.15;2.67;;;;;;;;;;5073582;28;20282;-89
2023/08/15 07:39:45;;;;;;;5.72;2.22;;;;;;;;;;5073269;28;20233;-89
2023/08/15 07:42:12;;;;;;;5.32;2.30;;;;;;;;;;5073031;28;20266;-89
2023/08/15 07:44:41;;;;;;;6.13;1.92;;;;;;;;;;5073562;28;20214;-89
2023/08/15 07:47:08;;;;;;;7.03;2.00;;;;;;;;;;5072869;28;20683;-89
2023/08/15 07:49:36;;;;;;;7.10;2.28;;;;;;;;;;5072990;28;20202;-89
2023/08/15 07:52:03;;;;;;;6.47;2.35;;;;;;;;;;5072934;28;20219;-87
2023/08/15 07:54:31;;;;;;;8.27;2.30;;;;;;;;;;5072942;28;20222;-89
2023/08/15 07:56:58;;;;;;;7.50;2.40;;;;;;;;;;5072520;28;20278;-89
2023/08/15 07:59:26;;;;;;;5.32;1.88;;;;;;;;;;5073183;28;20190;-90
2023/08/15 08:01:54;;;;;;;5.65;1.90;;;;;;;;;;5073323;28;20286;-89
2023/08/15 08:04:24;;;;;;;5.85;1.70;;;;;;;;;;5073703;28;20223;-89
2023/08/15 08:06:51;;;;;;;5.45;1.83;;;;;;;;;;5076816;28;20209;-89
2023/08/15 08:09:18;;;;;;;6.10;1.77;;;;;;;;;;5076616;28;20191;-89
2023/08/15 08:11:48;;;;;;;5.40;2.05;;;;;;;;;;5076757;28;20622;-90
2023/08/15 08:14:15;;;;;;;3.83;1.50;;;;;;;;;;5076822;28;20674;-90
2023/08/15 08:16:42;;;;;;;4.65;1.70;;;;;;;;;;5082428;28;20252;-89
2023/08/15 08:19:11;;;;;;;6.18;2.08;;;;;;;;;;5097030;28;20222;-90
2023/08/15 08:21:38;;;;;;;3.75;1.60;;;;;;;;;;5097413;28;20631;-89
2023/08/15 08:24:06;;;;;;;6.50;1.90;;;;;;;;;;5096880;28;20278;-90
2023/08/15 08:26:33;;;;;;;5.32;1.73;;;;;;;;;;5097074;28;20229;-90
2023/08/15 08:29:00;;;;;;;6.07;2.10;;;;;;;;;;5096757;28;20187;-89
2023/08/15 08:31:27;;;;;;;4.53;1.52;;;;;;;;;;5096812;28;20271;-89
2023/08/15 08:33:54;;;;;;;3.80;1.70;;;;;;;;;;5097103;28;20289;-90
2023/08/15 08:36:23;;;;;;;5.25;1.63;;;;;;;;;;5096488;28;20226;-89
2023/08/15 08:38:50;;;;;;;6.15;1.70;;;;;;;;;;5096407;28;20237;-89
2023/08/15 08:41:18;;;;;;;6.47;1.90;;;;;;;;;;5096578;27;20233;-89
2023/08/15 08:43:45;;;;;;;7.57;1.67;;;;;;;;;;5096854;28;20225;-89
2023/08/15 08:46:15;;;;;;;4.13;1.50;;;;;;;;;;5096799;28;20293;-89
2023/08/15 08:48:43;;;;;;;4.80;1.63;;;;;;;;;;5096636;28;20218;-90
2023/08/15 08:51:10;;;;;;;5.35;1.40;;;;;;;;;;5096002;28;20241;-89
2023/08/15 08:53:39;;;;;;;7.68;1.70;;;;;;;;;;5096128;28;20250;-85
2023/08/15 08:56:06;;;;;;;4.50;1.55;;;;;;;;;;5096483;28;20253;-90
2023/08/15 08:58:34;;;;;;;5.05;1.70;;;;;;;;;;5096278;28;20187;-89
2023/08/15 09:01:03;;;;;;;6.45;1.60;;;;;;;;;;5096201;28;20269;-90
2023/08/15 09:03:31;;;;;;;8.73;1.95;;;;;;;;;;5096599;28;20549;-90
2023/08/15 09:05:59;;;;;;;3.60;1.65;;;;;;;;;;5096199;28;20229;-89
2023/08/15 09:08:26;;;;;;;6.10;1.90;;;;;;;;;;5096047;28;20328;-90
2023/08/15 09:10:55;;;;;;;4.15;1.85;;;;;;;;;;5095669;28;20235;-89
2023/08/15 09:13:23;;;;;;;4.78;1.70;;;;;;;;;;5096271;28;20191;-89
2023/08/15 09:15:55;;;;;;;3.97;1.60;;;;;;;;;;5095308;28;20222;-90
2023/08/15 09:18:23;;;;;;;6.57;1.98;;;;;;;;;;5095625;28;20222;-90
2023/08/15 09:20:50;;;;;;;5.38;1.70;;;;;;;;;;5095793;28;20186;-90
2023/08/15 09:23:18;;;;;;;5.32;2.03;;;;;;;;;;5095529;28;20206;-89
2023/08/15 09:25:47;;;;;;;4.97;1.42;;;;;;;;;;5096224;28;20229;-90
2023/08/15 09:28:16;;;;;;;5.95;1.77;;;;;;;;;;5096194;28;20210;-90
2023/08/15 09:30:52;;;;;;;5.85;1.70;;;;;;;;;;5095858;27;20194;-90
2023/08/15 09:33:19;;;;;;;4.18;1.40;;;;;;;;;;5095801;28;20579;-90
2023/08/15 09:35:47;;;;;;;2.17;1.10;;;;;;;;;;5096169;28;20279;-90
2023/08/15 09:38:14;;;;;;;3.00;1.27;;;;;;;;;;5096191;28;20199;-90
2023/08/15 09:40:45;;;;;;;4.68;1.77;;;;;;;;;;5096553;28;20615;-90
2023/08/15 09:43:16;;;;;;;4.78;1.58;;;;;;;;;;5096710;28;20268;-90
2023/08/15 09:45:44;;;;;;;4.05;1.55;;;;;;;;;;5096476;28;20229;-90
2023/08/15 09:48:12;;;;;;;3.63;1.80;;;;;;;;;;5096556;28;20206;-89
2023/08/15 09:50:41;;;;;;;5.90;1.92;;;;;;;;;;5096286;28;20636;-90
2023/08/15 09:53:09;;;;;;;6.22;1.92;;;;;;;;;;5094985;28;20334;-90
2023/08/15 09:55:37;;;;;;;5.93;1.88;;;;;;;;;;5095998;28;20252;-90
2023/08/15 09:58:04;;;;;;;4.15;2.00;;;;;;;;;;5096564;28;20222;-90
2023/08/15 10:00:33;;;;;;;8.13;1.88;;;;;;;;;;5096407;28;20277;-90
2023/08/15 10:03:02;;;;;;;5.93;1.90;;;;;;;;;;5096413;28;20198;-90
2023/08/15 10:05:33;;;;;;;4.35;1.60;;;;;;;;;;5096250;28;20214;-90
2023/08/15 10:08:01;;;;;;;5.88;1.77;;;;;;;;;;5095686;28;20277;-91
2023/08/15 10:10:29;;;;;;;4.40;1.45;;;;;;;;;;5095935;28;20646;-90
2023/08/15 10:12:57;;;;;;;4.35;1.70;;;;;;;;;;5095531;28;20288;-90
2023/08/15 10:15:25;;;;;;;5.38;1.70;;;;;;;;;;5095938;28;20650;-90
2023/08/15 10:17:53;;;;;;;4.25;1.50;;;;;;;;;;5080123;28;20237;-90
2023/08/15 10:20:21;;;;;;;5.53;1.77;;;;;;;;;;5075765;28;20192;-91
2023/08/15 10:22:51;;;;;;;3.53;1.50;;;;;;;;;;5075656;28;20245;-90
2023/08/15 10:25:33;;;;;;;4.80;1.40;;;;;;;;;;5075552;28;20676;-91
2023/08/15 10:28:00;;;;;;;3.20;1.35;;;;;;;;;;5075466;28;20194;-91
2023/08/15 10:30:29;;;;;;;4.63;1.60;;;;;;;;;;5075441;28;20186;-90
2023/08/15 10:33:00;;;;;;;5.50;1.40;;;;;;;;;;5075182;28;20191;-91
2023/08/15 10:35:28;;;;;;;3.00;1.33;;;;;;;;;;5074919;28;20219;-90
2023/08/15 10:37:57;;;;;;;5.43;1.33;;;;;;;;;;5075549;28;20542;-90
2023/08/15 10:40:29;;;;;;;3.70;1.73;;;;;;;;;;5074894;28;20205;-90
2023/08/15 10:43:12;;;;;;;4.05;1.65;;;;;;;;;;5074505;28;20230;-90
2023/08/15 10:45:43;;;;;;;3.13;1.70;;;;;;;;;;5074364;28;20244;-91
2023/08/15 10:48:12;;;;;;;4.38;1.50;;;;;;;;;;5074020;28;20643;-91
2023/08/15 10:50:44;;;;;;;5.05;1.65;;;;;;;;;;5074095;28;20278;-90
2023/08/15 10:53:11;;;;;;;4.50;1.77;;;;;;;;;;5074003;28;20309;-90
2023/08/15 10:55:39;;;;;;;8.30;1.73;;;;;;;;;;5073703;28;20235;-91
2023/08/15 10:58:08;;;;;;;5.63;1.63;;;;;;;;;;5073725;28;20216;-90
2023/08/15 11:00:36;;;;;;;6.10;2.10;;;;;;;;;;5073593;28;20231;-90
2023/08/15 11:03:03;;;;;;;4.10;1.75;;;;;;;;;;5074028;28;20210;-90
2023/08/15 11:05:32;;;;;;;6.18;1.52;;;;;;;;;;5073643;28;20241;-90
2023/08/15 11:08:12;;;;;;;4.68;1.50;;;;;;;;;;5073735;28;20203;-90
2023/08/15 11:10:43;;;;;;;4.30;1.80;;;;;;;;;;5073504;28;20198;-91
2023/08/15 11:13:11;;;;;;;5.30;2.00;;;;;;;;;;5073813;28;20233;-90
2023/08/15 11:15:39;;;;;;;5.75;2.63;;;;;;;;;;5074271;28;20230;-90
2023/08/15 11:18:06;;;;;;;5.68;2.40;;;;;;;;;;5073683;28;20625;-91
2023/08/15 11:20:35;;;;;;;5.82;3.85;;;;;;;;;;5073840;28;20266;-91
2023/08/15 11:23:02;;;;;;;5.18;1.77;;;;;;;;;;5072912;28;20210;-90
2023/08/15 11:25:29;;;;;;;3.90;1.80;;;;;;;;;;5073648;28;20195;-90
2023/08/15 11:27:56;;;;;;;3.58;1.40;;;;;;;;;;5073889;28;20219;-91
2023/08/15 11:30:24;;;;;;;4.28;1.58;;;;;;;;;;5073911;28;20556;-91
2023/08/15 11:32:51;;;;;;;3.33;1.10;;;;;;;;;;5073754;28;20287;-91
2023/08/15 11:35:19;;;;;;;3.88;1.27;;;;;;;;;;5073098;28;20752;-91
2023/08/15 11:37:48;;;;;;;2.72;1.30;;;;;;;;;;5073835;28;20201;-90
2023/08/15 11:40:15;;;;;;;3.05;1.20;;;;;;;;;;5076042;28;20848;-90
2023/08/15 11:42:42;;;;;;;4.03;1.30;;;;;;;;;;5077293;28;20229;-91
2023/08/15 11:45:11;;;;;;;2.72;1.20;;;;;;;;;;5077550;28;20270;-91
2023/08/15 11:47:53;;;;;;;2.72;1.13;;;;;;;;;;5078931;28;20191;-89
2023/08/15 11:50:20;;;;;;;3.25;1.30;;;;;;;;;;5078740;28;20230;-91
2023/08/15 11:52:49;;;;;;;4.85;1.20;;;;;;;;;;5077251;28;20322;-91
2023/08/15 11:55:18;;;;;;;4.88;1.30;;;;;;;;;;5077465;28;20203;-91
2023/08/15 11:57:45;;;;;;;3.53;1.40;;;;;;;;;;5077510;28;21196;-90
2023/08/15 12:00:13;;;;;;;4.90;1.30;;;;;;;;;;5077041;28;20227;-91
2023/08/15 12:02:43;;;;;;;3.55;1.15;;;;;;;;;;5076826;28;20217;-91
2023/08/15 12:05:11;;;;;;;4.47;1.40;;;;;;;;;;5077170;28;20717;-91
2023/08/15 12:07:39;;;;;;;3.47;1.02;;;;;;;;;;5077049;28;20286;-91
2023/08/15 12:10:08;;;;;;;2.33;1.23;;;;;;;;;;5077206;28;20266;-91
2023/08/15 12:12:39;;;;;;;3.45;1.20;;;;;;;;;;5077122;28;20203;-91
2023/08/15 12:15:07;;;;;;;4.88;1.20;;;;;;;;;;5077407;28;20193;-91
2023/08/15 12:17:34;;;;;;;3.13;1.05;;;;;;;;;;5089457;28;20321;-91
2023/08/15 12:20:03;;;;;;;2.47;1.13;;;;;;;;;;5097329;28;20203;-91
2023/08/15 12:22:30;;;;;;;3.67;1.30;;;;;;;;;;5097069;28;20197;-91
2023/08/15 12:24:57;;;;;;;2.80;1.20;;;;;;;;;;5097007;28;20198;-91
2023/08/15 12:27:26;;;;;;;4.15;1.20;;;;;;;;;;5097060;28;20226;-91
2023/08/15 12:29:53;;;;;;;3.20;1.05;;;;;;;;;;5097112;28;20217;-91
2023/08/15 12:32:21;;;;;;;2.50;0.90;;;;;;;;;;5096589;28;20254;-92
2023/08/15 12:34:48;;;;;;;1.77;0.90;;;;;;;;;;5096949;28;20182;-91
2023/08/15 12:37:15;;;;;;;3.72;1.00;;;;;;;;;;5096730;28;20415;-91
2023/08/15 12:39:42;;;;;;;2.88;1.00;;;;;;;;;;5096899;28;20226;-91
2023/08/15 12:42:10;;;;;;;1.88;0.80;;;;;;;;;;5097219;28;20225;-91
2023/08/15 12:44:38;;;;;;;4.50;0.95;;;;;;;;;;5096614;28;20207;-91
2023/08/15 12:47:06;;;;;;;2.63;0.95;;;;;;;;;;5096409;28;20269;-91
2023/08/15 12:49:33;;;;;;;1.30;0.70;;;;;;;;;;5095605;28;20576;-92
2023/08/15 12:52:00;;;;;;;2.65;0.80;;;;;;;;;;5095359;28;20632;-90
2023/08/15 12:54:28;;;;;;;2.50;1.17;;;;;;;;;;5097041;28;20297;-92
2023/08/15 12:56:55;;;;;;;1.92;0.80;;;;;;;;;;5096133;28;20230;-91
2023/08/15 12:59:23;;;;;;;1.88;1.00;;;;;;;;;;5096245;28;20206;-91
2023/08/15 13:01:51;;;;;;;3.35;0.90;;;;;;;;;;5096193;28;20580;-91
2023/08/15 13:04:19;;;;;;;2.80;0.95;;;;;;;;;;5096696;27;20202;-89
2023/08/15 13:06:47;;;;;;;3.03;0.93;;;;;;;;;;5096365;28;20618;-90
2023/08/15 13:09:14;;;;;;;3.45;1.05;;;;;;;;;;5096590;28;20263;-91
2023/08/15 13:11:42;;;;;;;2.90;0.82;;;;;;;;;;5096286;28;20285;-91
2023/08/15 13:14:09;;;;;;;2.05;0.98;;;;;;;;;;5096198;28;20674;-91
2023/08/15 13:16:36;;;;;;;3.00;1.40;;;;;;;;;;5091026;28;20268;-91
2023/08/15 13:19:05;;;;;;;2.28;1.05;;;;;;;;;;5075850;28;20278;-91
2023/08/15 13:21:32;;;;;;;3.58;1.27;;;;;;;;;;5076063;28;20286;-90
2023/08/15 13:23:59;;;;;;;3.53;0.95;;;;;;;;;;5075333;28;20282;-90
2023/08/15 13:26:27;;;;;;;3.85;1.10;;;;;;;;;;5076447;28;20223;-90
2023/08/15 13:28:54;;;;;;;2.65;1.00;;;;;;;;;;5076352;28;20222;-90
2023/08/15 13:31:21;;;;;;;2.50;1.10;;;;;;;;;;5075429;28;20615;-90
2023/08/15 13:33:48;;;;;;;2.13;1.02;;;;;;;;;;5075571;28;20218;-90
2023/08/15 13:36:17;;;;;;;3.63;1.30;;;;;;;;;;5075695;28;20233;-91
2023/08/15 13:38:44;;;;;;;2.97;1.10;;;;;;;;;;5075449;28;20229;-91
2023/08/15 13:41:12;;;;;;;2.85;1.08;;;;;;;;;;5075303;28;20211;-90
2023/08/15 13:43:39;;;;;;;4.63;1.23;;;;;;;;;;5074691;28;20276;-90
2023/08/15 13:46:07;;;;;;;2.95;0.90;;;;;;;;;;5075484;28;20290;-89
2023/08/15 13:48:34;;;;;;;1.90;0.95;;;;;;;;;;5075234;28;20193;-90
2023/08/15 13:51:02;;;;;;;3.88;1.00;;;;;;;;;;5075270;28;20222;-91
2023/08/15 13:53:31;;;;;;;1.95;1.17;;;;;;;;;;5074710;28;20253;-90
2023/08/15 13:55:59;;;;;;;2.42;1.00;;;;;;;;;;5074715;28;20748;-90
2023/08/15 13:58:26;;;;;;;2.90;1.00;;;;;;;;;;5074858;28;20197;-90
2023/08/15 14:00:53;;;;;;;4.03;1.20;;;;;;;;;;5074674;28;20229;-91
2023/08/15 14:03:21;;;;;;;2.40;1.20;;;;;;;;;;5074857;28;20244;-90
2023/08/15 14:05:48;;;;;;;3.33;1.25;;;;;;;;;;5074454;28;20203;-91
2023/08/15 14:08:15;;;;;;;3.80;1.10;;;;;;;;;;5074444;28;20750;-89
2023/08/15 14:10:44;;;;;;;2.88;1.02;;;;;;;;;;5075311;28;20252;-89
2023/08/15 14:13:11;;;;;;;3.80;1.27;;;;;;;;;;5074431;28;20199;-90
2023/08/15 14:15:39;;;;;;;4.93;1.40;;;;;;;;;;5074489;28;20195;-90
2023/08/15 14:18:06;;;;;;;2.65;1.23;;;;;;;;;;5091966;28;20214;-89
2023/08/15 14:20:35;;;;;;;4.28;1.40;;;;;;;;;;5094943;28;20244;-90
2023/08/15 14:23:03;;;;;;;3.95;1.40;;;;;;;;;;5094815;28;20191;-90
2023/08/15 14:25:30;;;;;;;2.88;1.30;;;;;;;;;;5095033;28;20242;-89
2023/08/15 14:27:59;;;;;;;3.83;1.50;;;;;;;;;;5094752;27;20297;-90
2023/08/15 14:30:26;;;;;;;3.17;1.15;;;;;;;;;;5095178;28;20659;-90
2023/08/15 14:32:54;;;;;;;1.80;1.00;;;;;;;;;;5094404;28;20281;-89
2023/08/15 14:35:22;;;;;;;2.47;1.15;;;;;;;;;;5094198;28;20230;-89
2023/08/15 14:37:50;;;;;;;2.60;1.33;;;;;;;;;;5094319;28;20232;-90
2023/08/15 14:40:19;;;;;;;2.90;1.40;;;;;;;;;;5094707;28;20642;-90
2023/08/15 14:42:46;;;;;;;2.65;1.02;;;;;;;;;;5094212;28;20195;-90
2023/08/15 14:45:15;;;;;;;4.47;1.35;;;;;;;;;;5094200;28;20677;-90